createdAt,value
2023-05-14T00:00:29.595Z,4.40
2023-05-14T00:01:31.280Z,4.40
2023-05-14T00:02:33.125Z,4.00
2023-05-14T00:03:35.535Z,3.97
2023-05-14T00:04:37.545Z,4.07
2023-05-14T00:05:39.414Z,4.50
2023-05-14T00:06:41.208Z,4.60
2023-05-14T00:07:42.793Z,4.05
2023-05-14T00:08:44.604Z,4.00
2023-05-14T00:09:46.360Z,4.35
2023-05-14T00:10:48.117Z,4.18
2023-05-14T00:11:49.837Z,4.68
2023-05-14T00:12:51.728Z,4.07
2023-05-14T00:13:53.445Z,4.10
2023-05-14T00:14:55.115Z,4.05
2023-05-14T00:15:56.747Z,4.15
2023-05-14T00:16:59.695Z,4.45
2023-05-14T00:18:01.449Z,4.13
2023-05-14T00:19:03.256Z,3.80
2023-05-14T00:20:07.286Z,4.78
2023-05-14T00:21:08.994Z,4.40
2023-05-14T00:22:10.988Z,4.05
2023-05-14T00:23:12.811Z,3.90
2023-05-14T00:24:14.986Z,4.00
2023-05-14T00:25:16.559Z,3.95
2023-05-14T00:26:18.464Z,4.28
2023-05-14T00:27:20.084Z,4.32
2023-05-14T00:28:21.831Z,4.47
2023-05-14T00:29:23.586Z,4.50
2023-05-14T00:30:25.655Z,4.47
2023-05-14T00:31:28.528Z,4.38
2023-05-14T00:32:30.265Z,4.28
2023-05-14T00:33:32.393Z,4.50
2023-05-14T00:34:35.722Z,4.20
2023-05-14T00:35:37.416Z,4.22
2023-05-14T00:36:39.116Z,4.18
2023-05-14T00:37:40.855Z,4.88
2023-05-14T00:38:42.534Z,4.47
2023-05-14T00:39:44.218Z,4.03
2023-05-14T00:40:51.142Z,4.50
2023-05-14T00:41:52.802Z,4.47
2023-05-14T00:42:55.848Z,5.20
2023-05-14T00:43:57.481Z,4.20
2023-05-14T00:44:59.105Z,4.43
2023-05-14T00:46:00.944Z,4.50
2023-05-14T00:47:02.942Z,4.57
2023-05-14T00:48:05.042Z,4.60
2023-05-14T00:49:06.863Z,4.75
2023-05-14T00:50:11.047Z,4.53
2023-05-14T00:51:14.836Z,4.50
2023-05-14T00:52:17.408Z,4.55
2023-05-14T00:53:20.649Z,4.60
2023-05-14T00:54:22.918Z,4.60
2023-05-14T00:55:25.389Z,4.45
2023-05-14T00:56:27.755Z,3.97
2023-05-14T00:57:29.471Z,4.38
2023-05-14T00:58:31.671Z,4.90
2023-05-14T00:59:34.181Z,4.20
2023-05-14T01:00:36.565Z,5.05
2023-05-14T01:01:38.250Z,5.07
2023-05-14T01:02:39.972Z,4.30
2023-05-14T01:03:42.678Z,4.82
2023-05-14T01:04:44.816Z,4.70
2023-05-14T01:06:06.629Z,5.05
2023-05-14T01:07:24.546Z,4.38
2023-05-14T01:08:46.769Z,4.75
2023-05-14T01:10:11.804Z,4.63
2023-05-14T01:11:42.348Z,4.88
2023-05-14T01:13:13.058Z,4.90
2023-05-14T01:14:22.760Z,4.72
2023-05-14T01:15:29.381Z,4.18
2023-05-14T01:16:33.789Z,4.43
2023-05-14T01:17:44.890Z,4.47
2023-05-14T01:18:51.244Z,4.60
2023-05-14T01:19:55.130Z,4.72
2023-05-14T01:20:56.810Z,4.32
2023-05-14T01:21:58.618Z,4.93
2023-05-14T01:23:00.288Z,4.63
2023-05-14T01:24:01.947Z,5.10
2023-05-14T01:25:05.074Z,5.10
2023-05-14T01:26:06.909Z,5.38
2023-05-14T01:27:18.049Z,4.80
2023-05-14T01:28:24.831Z,5.10
2023-05-14T01:29:29.276Z,4.97
2023-05-14T01:31:05.975Z,5.20
2023-05-14T01:32:09.732Z,4.88
2023-05-14T01:33:14.214Z,5.05
2023-05-14T01:34:24.215Z,5.30
2023-05-14T01:35:30.369Z,5.25
2023-05-14T01:36:33.484Z,5.10
2023-05-14T01:37:36.477Z,5.38
2023-05-14T01:38:40.031Z,4.65
2023-05-14T01:39:42.615Z,4.88
2023-05-14T01:40:46.158Z,5.03
2023-05-14T01:41:48.906Z,5.10
2023-05-14T01:42:51.946Z,5.40
2023-05-14T01:43:54.308Z,5.47
2023-05-14T01:44:56.245Z,5.18
2023-05-14T01:45:58.084Z,5.03
2023-05-14T01:47:00.267Z,5.72
2023-05-14T01:48:02.253Z,5.00
2023-05-14T01:49:06.105Z,5.25
2023-05-14T01:50:09.914Z,5.32
2023-05-14T01:51:14.164Z,5.15
2023-05-14T01:52:17.075Z,5.35
2023-05-14T01:53:18.891Z,4.85
2023-05-14T01:54:20.655Z,5.63
2023-05-14T01:55:26.306Z,5.45
2023-05-14T01:56:29.612Z,5.40
2023-05-14T01:57:31.629Z,5.20
2023-05-14T01:58:33.514Z,5.60
2023-05-14T01:59:35.657Z,5.18
2023-05-14T02:00:38.308Z,5.85
2023-05-14T02:01:39.993Z,5.65
2023-05-14T02:02:42.053Z,5.20
2023-05-14T02:03:47.260Z,4.78
2023-05-14T02:04:50.933Z,5.85
2023-05-14T02:05:52.760Z,5.80
2023-05-14T02:06:54.514Z,5.80
2023-05-14T02:07:59.128Z,5.38
2023-05-14T02:09:00.810Z,5.75
2023-05-14T02:10:04.938Z,5.32
2023-05-14T02:11:09.570Z,5.40
2023-05-14T02:12:11.807Z,5.60
2023-05-14T02:13:13.524Z,5.25
2023-05-14T02:14:15.777Z,5.35
2023-05-14T02:15:17.468Z,4.85
2023-05-14T02:16:19.339Z,5.40
2023-05-14T02:17:21.642Z,4.97
2023-05-14T02:18:23.456Z,4.82
2023-05-14T02:19:25.093Z,4.80
2023-05-14T02:20:27.174Z,4.80
2023-05-14T02:21:28.888Z,5.57
2023-05-14T02:22:30.577Z,5.80
2023-05-14T02:23:41.165Z,5.22
2023-05-14T02:24:43.884Z,5.32
2023-05-14T02:25:45.463Z,5.55
2023-05-14T02:26:47.350Z,4.95
2023-05-14T02:27:49.550Z,4.97
2023-05-14T02:28:51.366Z,5.00
2023-05-14T02:29:53.747Z,5.10
2023-05-14T02:31:02.059Z,4.63
2023-05-14T02:32:04.020Z,4.93
2023-05-14T02:33:05.848Z,4.88
2023-05-14T02:34:07.708Z,4.82
2023-05-14T02:35:09.912Z,5.13
2023-05-14T02:36:12.334Z,5.80
2023-05-14T02:37:14.039Z,4.80
2023-05-14T02:38:15.757Z,5.30
2023-05-14T02:39:17.353Z,4.95
2023-05-14T02:40:20.722Z,5.53
2023-05-14T02:41:22.471Z,5.65
2023-05-14T02:42:24.307Z,5.53
2023-05-14T02:43:26.610Z,5.32
2023-05-14T02:44:28.384Z,5.25
2023-05-14T02:45:30.256Z,5.22
2023-05-14T02:46:32.446Z,5.35
2023-05-14T02:47:36.910Z,5.43
2023-05-14T02:48:39.682Z,6.25
2023-05-14T02:49:41.563Z,6.30
2023-05-14T02:50:43.488Z,5.72
2023-05-14T02:51:45.049Z,5.97
2023-05-14T02:52:46.849Z,5.40
2023-05-14T02:53:48.846Z,5.65
2023-05-14T02:54:50.633Z,5.03
2023-05-14T02:55:52.295Z,4.95
2023-05-14T02:56:54.136Z,5.20
2023-05-14T02:57:56.802Z,4.95
2023-05-14T02:58:58.577Z,5.30
2023-05-14T03:00:00.568Z,5.65
2023-05-14T03:01:03.339Z,5.15
2023-05-14T03:02:05.860Z,5.68
2023-05-14T03:03:08.535Z,5.07
2023-05-14T03:04:10.682Z,5.18
2023-05-14T03:05:12.614Z,4.82
2023-05-14T03:06:14.374Z,5.55
2023-05-14T03:07:16.064Z,5.20
2023-05-14T03:08:17.696Z,5.40
2023-05-14T03:09:19.930Z,5.00
2023-05-14T03:10:21.972Z,4.95
2023-05-14T03:11:23.945Z,4.70
2023-05-14T03:12:25.787Z,5.38
2023-05-14T03:13:27.723Z,5.10
2023-05-14T03:14:29.395Z,4.82
2023-05-14T03:15:31.221Z,5.28
2023-05-14T03:16:33.074Z,5.70
2023-05-14T03:17:34.824Z,5.72
2023-05-14T03:18:36.883Z,5.60
2023-05-14T03:19:38.699Z,5.60
2023-05-14T03:20:42.651Z,5.93
2023-05-14T03:21:44.525Z,5.40
2023-05-14T03:22:46.620Z,6.00
2023-05-14T03:23:49.306Z,6.00
2023-05-14T03:24:53.757Z,6.47
2023-05-14T03:25:55.507Z,5.75
2023-05-14T03:26:59.169Z,6.22
2023-05-14T03:28:00.758Z,5.40
2023-05-14T03:29:03.889Z,5.53
2023-05-14T03:30:06.460Z,5.95
2023-05-14T03:31:08.584Z,5.97
2023-05-14T03:32:11.410Z,5.70
2023-05-14T03:33:14.085Z,5.20
2023-05-14T03:34:15.724Z,5.72
2023-05-14T03:35:17.552Z,5.40
2023-05-14T03:36:19.300Z,5.40
2023-05-14T03:37:23.196Z,5.00
2023-05-14T03:38:25.036Z,5.55
2023-05-14T03:39:26.752Z,5.32
2023-05-14T03:40:28.530Z,5.22
2023-05-14T03:41:30.208Z,5.45
2023-05-14T03:42:31.782Z,5.70
2023-05-14T03:43:33.524Z,5.43
2023-05-14T03:44:35.731Z,5.95
2023-05-14T03:45:38.911Z,5.90
2023-05-14T03:46:40.720Z,5.97
2023-05-14T03:47:42.506Z,6.03
2023-05-14T03:48:44.524Z,5.80
2023-05-14T03:49:47.078Z,5.82
2023-05-14T03:50:49.851Z,5.85
2023-05-14T03:51:51.535Z,6.15
2023-05-14T03:52:53.527Z,5.45
2023-05-14T03:53:55.435Z,6.10
2023-05-14T03:54:57.141Z,5.80
2023-05-14T03:55:58.786Z,5.45
2023-05-14T03:57:00.559Z,5.40
2023-05-14T03:58:02.677Z,5.22
2023-05-14T03:59:04.387Z,5.05
2023-05-14T04:00:07.533Z,5.03
2023-05-14T04:01:18.729Z,6.00
2023-05-14T04:02:20.526Z,5.57
2023-05-14T04:03:22.311Z,5.85
2023-05-14T04:04:24.274Z,5.90
2023-05-14T04:05:25.950Z,6.43
2023-05-14T04:06:27.710Z,6.25
2023-05-14T04:07:29.993Z,6.10
2023-05-14T04:08:31.772Z,6.50
2023-05-14T04:09:34.974Z,6.35
2023-05-14T04:10:36.821Z,7.13
2023-05-14T04:11:41.141Z,7.15
2023-05-14T04:12:44.952Z,6.88
2023-05-14T04:13:46.697Z,6.53
2023-05-14T04:14:48.375Z,6.78
2023-05-14T04:15:50.276Z,6.80
2023-05-14T04:16:51.856Z,6.68
2023-05-14T04:17:53.654Z,6.75
2023-05-14T04:18:55.332Z,6.90
2023-05-14T04:19:57.047Z,6.88
2023-05-14T04:20:59.181Z,6.60
2023-05-14T04:22:00.756Z,6.50
2023-05-14T04:23:02.794Z,6.93
2023-05-14T04:24:04.682Z,6.70
2023-05-14T04:25:06.880Z,6.65
2023-05-14T04:26:08.955Z,6.63
2023-05-14T04:27:10.676Z,7.13
2023-05-14T04:28:12.358Z,6.82
2023-05-14T04:29:16.278Z,6.47
2023-05-14T04:30:20.050Z,7.30
2023-05-14T04:31:22.371Z,6.68
2023-05-14T04:32:24.598Z,6.30
2023-05-14T04:33:26.196Z,7.05
2023-05-14T04:34:27.811Z,6.88
2023-05-14T04:35:29.469Z,6.82
2023-05-14T04:36:31.731Z,7.10
2023-05-14T04:37:33.524Z,6.78
2023-05-14T04:38:35.205Z,6.40
2023-05-14T04:39:36.830Z,6.80
2023-05-14T04:40:38.563Z,6.18
2023-05-14T04:41:40.751Z,5.97
2023-05-14T04:42:43.818Z,5.97
2023-05-14T04:43:46.819Z,6.00
2023-05-14T04:44:48.676Z,5.93
2023-05-14T04:45:51.608Z,6.18
2023-05-14T04:46:53.450Z,6.03
2023-05-14T04:47:55.145Z,6.43
2023-05-14T04:48:56.949Z,5.93
2023-05-14T04:49:59.007Z,6.15
2023-05-14T04:51:01.161Z,6.00
2023-05-14T04:52:02.757Z,6.10
2023-05-14T04:53:04.417Z,6.93
2023-05-14T04:54:06.274Z,6.78
2023-05-14T04:55:08.476Z,6.45
2023-05-14T04:56:10.908Z,6.43
2023-05-14T04:57:12.652Z,6.53
2023-05-14T04:58:14.477Z,6.25
2023-05-14T04:59:16.506Z,6.00
2023-05-14T05:00:19.264Z,5.90
2023-05-14T05:01:22.211Z,6.30
2023-05-14T05:02:26.259Z,6.43
2023-05-14T05:03:27.911Z,6.80
2023-05-14T05:04:29.767Z,6.63
2023-05-14T05:05:31.471Z,6.22
2023-05-14T05:06:33.191Z,7.00
2023-05-14T05:07:35.163Z,6.90
2023-05-14T05:08:37.028Z,6.68
2023-05-14T05:09:38.941Z,6.60
2023-05-14T05:10:40.615Z,6.95
2023-05-14T05:11:42.332Z,6.43
2023-05-14T05:12:44.143Z,6.75
2023-05-14T05:13:46.117Z,6.03
2023-05-14T05:14:47.749Z,6.80
2023-05-14T05:15:49.576Z,7.18
2023-05-14T05:16:51.722Z,7.10
2023-05-14T05:17:53.617Z,6.82
2023-05-14T05:18:55.393Z,6.68
2023-05-14T05:19:57.096Z,6.70
2023-05-14T05:20:59.166Z,6.60
2023-05-14T05:22:01.042Z,6.65
2023-05-14T05:23:02.659Z,6.55
2023-05-14T05:24:04.615Z,7.13
2023-05-14T05:25:06.578Z,7.22
2023-05-14T05:26:08.242Z,7.00
2023-05-14T05:27:10.118Z,7.20
2023-05-14T05:28:11.736Z,6.65
2023-05-14T05:29:13.929Z,6.90
2023-05-14T05:30:15.752Z,6.35
2023-05-14T05:31:19.693Z,6.32
2023-05-14T05:32:21.885Z,6.47
2023-05-14T05:33:23.642Z,6.60
2023-05-14T05:34:25.325Z,6.50
2023-05-14T05:35:26.956Z,6.53
2023-05-14T05:36:28.754Z,7.40
2023-05-14T05:37:30.893Z,6.60
2023-05-14T05:38:32.895Z,6.78
2023-05-14T05:39:34.917Z,6.53
2023-05-14T05:40:36.874Z,7.97
2023-05-14T05:41:39.075Z,6.60
2023-05-14T05:42:41.396Z,6.95
2023-05-14T05:43:43.437Z,6.68
2023-05-14T05:44:45.254Z,6.97
2023-05-14T05:45:46.921Z,6.30
2023-05-14T05:46:48.627Z,6.28
2023-05-14T05:47:50.538Z,6.18
2023-05-14T05:48:53.448Z,6.15
2023-05-14T05:49:55.042Z,6.25
2023-05-14T05:50:56.821Z,5.97
2023-05-14T05:51:58.580Z,6.00
2023-05-14T05:53:00.959Z,6.50
2023-05-14T05:54:02.587Z,6.07
2023-05-14T05:55:04.433Z,6.10
2023-05-14T05:56:06.791Z,6.10
2023-05-14T05:57:08.664Z,5.70
2023-05-14T05:58:10.593Z,6.15
2023-05-14T05:59:12.404Z,6.35
2023-05-14T06:00:14.672Z,5.72
2023-05-14T06:01:16.421Z,5.07
2023-05-14T06:02:18.890Z,5.80
2023-05-14T06:03:22.076Z,6.00
2023-05-14T06:04:23.725Z,6.72
2023-05-14T06:05:25.645Z,6.05
2023-05-14T06:06:27.388Z,6.10
2023-05-14T06:07:29.062Z,5.72
2023-05-14T06:08:31.615Z,5.65
2023-05-14T06:09:33.477Z,5.70
2023-05-14T06:10:36.212Z,5.40
2023-05-14T06:11:39.945Z,5.45
2023-05-14T06:12:41.711Z,5.65
2023-05-14T06:13:43.353Z,6.07
2023-05-14T06:14:45.054Z,5.43
2023-05-14T06:15:47.525Z,5.28
2023-05-14T06:16:49.281Z,5.80
2023-05-14T06:17:51.065Z,5.20
2023-05-14T06:18:53.238Z,5.30
2023-05-14T06:19:54.895Z,4.95
2023-05-14T06:20:57.237Z,4.97
2023-05-14T06:21:59.276Z,5.18
2023-05-14T06:23:00.981Z,5.30
2023-05-14T06:24:02.835Z,4.65
2023-05-14T06:25:04.792Z,5.38
2023-05-14T06:26:06.424Z,4.93
2023-05-14T06:27:08.069Z,5.30
2023-05-14T06:28:09.686Z,5.38
2023-05-14T06:29:11.339Z,5.25
2023-05-14T06:30:13.654Z,4.65
2023-05-14T06:31:15.281Z,5.68
2023-05-14T06:32:17.597Z,5.32
2023-05-14T06:33:21.218Z,5.15
2023-05-14T06:34:22.831Z,4.90
2023-05-14T06:35:24.620Z,5.15
2023-05-14T06:36:26.127Z,5.15
2023-05-14T06:37:27.706Z,4.93
2023-05-14T06:38:29.388Z,4.78
2023-05-14T06:39:31.007Z,4.82
2023-05-14T06:40:32.604Z,5.18
2023-05-14T06:41:34.900Z,5.10
2023-05-14T06:42:36.537Z,4.28
2023-05-14T06:43:39.614Z,4.75
2023-05-14T06:44:41.169Z,4.82
2023-05-14T06:45:42.734Z,4.10
2023-05-14T06:46:44.343Z,4.68
2023-05-14T06:47:46.057Z,4.80
2023-05-14T06:48:47.699Z,4.10
2023-05-14T06:49:49.316Z,4.32
2023-05-14T06:50:50.990Z,4.78
2023-05-14T06:51:52.628Z,4.20
2023-05-14T06:52:54.207Z,4.35
2023-05-14T06:53:56.229Z,4.00
2023-05-14T06:54:57.833Z,4.53
2023-05-14T06:55:59.594Z,4.60
2023-05-14T06:57:01.260Z,4.10
2023-05-14T06:58:02.794Z,4.43
2023-05-14T06:59:04.379Z,5.00
2023-05-14T07:00:08.562Z,4.50
2023-05-14T07:01:10.640Z,4.22
2023-05-14T07:02:12.367Z,4.45
2023-05-14T07:03:16.380Z,4.70
2023-05-14T07:04:20.331Z,4.72
2023-05-14T07:05:21.983Z,4.30
2023-05-14T07:06:23.992Z,4.30
2023-05-14T07:07:25.649Z,4.85
2023-05-14T07:08:27.216Z,4.43
2023-05-14T07:09:28.938Z,4.60
2023-05-14T07:10:30.889Z,4.78
2023-05-14T07:11:32.620Z,4.30
2023-05-14T07:12:34.258Z,4.60
2023-05-14T07:13:36.263Z,4.43
2023-05-14T07:14:37.911Z,4.50
2023-05-14T07:15:39.574Z,4.40
2023-05-14T07:16:42.194Z,4.80
2023-05-14T07:17:43.832Z,4.63
2023-05-14T07:18:45.811Z,4.35
2023-05-14T07:19:47.589Z,4.03
2023-05-14T07:20:49.374Z,4.22
2023-05-14T07:21:51.049Z,4.25
2023-05-14T07:22:53.061Z,4.40
2023-05-14T07:23:54.804Z,3.72
2023-05-14T07:24:56.402Z,4.38
2023-05-14T07:25:57.990Z,3.88
2023-05-14T07:27:00.848Z,4.43
2023-05-14T07:28:02.463Z,4.13
2023-05-14T07:29:04.327Z,4.00
2023-05-14T07:30:07.354Z,4.30
2023-05-14T07:31:09.286Z,3.83
2023-05-14T07:32:12.222Z,3.83
2023-05-14T07:33:15.170Z,3.70
2023-05-14T07:34:16.839Z,4.18
2023-05-14T07:35:18.559Z,3.90
2023-05-14T07:36:20.200Z,4.22
2023-05-14T07:37:24.184Z,3.97
2023-05-14T07:38:25.964Z,4.07
2023-05-14T07:39:27.661Z,3.78
2023-05-14T07:40:29.300Z,4.18
2023-05-14T07:41:30.849Z,3.88
2023-05-14T07:42:36.513Z,4.57
2023-05-14T07:43:40.376Z,3.67
2023-05-14T07:44:41.948Z,3.75
2023-05-14T07:45:43.831Z,3.55
2023-05-14T07:46:45.501Z,3.92
2023-05-14T07:47:47.305Z,3.88
2023-05-14T07:48:48.974Z,4.20
2023-05-14T07:49:54.503Z,4.25
2023-05-14T07:50:56.199Z,3.72
2023-05-14T07:51:57.774Z,3.88
2023-05-14T07:52:59.610Z,3.60
2023-05-14T07:54:01.304Z,3.83
2023-05-14T07:55:04.049Z,3.70
2023-05-14T07:56:06.050Z,3.53
2023-05-14T07:57:07.642Z,3.42
2023-05-14T07:58:09.339Z,3.33
2023-05-14T07:59:10.984Z,3.33
2023-05-14T08:00:13.217Z,3.30
2023-05-14T08:01:14.789Z,3.35
2023-05-14T08:02:16.965Z,3.40
2023-05-14T08:03:19.179Z,3.33
2023-05-14T08:04:22.878Z,3.40
2023-05-14T08:05:24.638Z,3.20
2023-05-14T08:06:27.625Z,3.40
2023-05-14T08:07:30.080Z,3.63
2023-05-14T08:08:31.709Z,3.70
2023-05-14T08:09:33.396Z,3.70
2023-05-14T08:10:35.047Z,3.15
2023-05-14T08:11:36.720Z,3.13
2023-05-14T08:12:38.983Z,3.33
2023-05-14T08:13:40.792Z,3.25
2023-05-14T08:14:42.369Z,2.83
2023-05-14T08:15:44.012Z,2.85
2023-05-14T08:16:45.612Z,3.40
2023-05-14T08:17:47.269Z,2.90
2023-05-14T08:18:49.109Z,3.30
2023-05-14T08:19:50.739Z,3.10
2023-05-14T08:20:52.535Z,2.90
2023-05-14T08:21:54.451Z,3.08
2023-05-14T08:22:56.937Z,3.13
2023-05-14T08:23:58.817Z,3.10
2023-05-14T08:25:01.608Z,3.45
2023-05-14T08:26:04.346Z,3.60
2023-05-14T08:27:06.493Z,3.33
2023-05-14T08:28:08.857Z,3.60
2023-05-14T08:29:11.533Z,3.28
2023-05-14T08:30:14.327Z,2.92
2023-05-14T08:31:16.122Z,3.00
2023-05-14T08:32:23.303Z,3.40
2023-05-14T08:33:25.219Z,3.25
2023-05-14T08:34:27.995Z,3.30
2023-05-14T08:35:29.746Z,3.53
2023-05-14T08:36:31.584Z,3.25
2023-05-14T08:37:33.294Z,3.20
2023-05-14T08:38:34.972Z,3.50
2023-05-14T08:39:36.497Z,3.47
2023-05-14T08:40:38.179Z,3.15
2023-05-14T08:41:41.074Z,3.20
2023-05-14T08:42:44.977Z,3.10
2023-05-14T08:44:12.407Z,2.90
2023-05-14T08:45:25.695Z,3.20
2023-05-14T08:46:30.677Z,3.28
2023-05-14T08:47:33.691Z,3.40
2023-05-14T08:48:36.153Z,3.20
2023-05-14T08:49:41.689Z,2.88
2023-05-14T08:50:44.038Z,2.70
2023-05-14T08:51:48.561Z,3.00
2023-05-14T08:52:51.040Z,3.03
2023-05-14T08:53:52.712Z,3.10
2023-05-14T08:54:55.810Z,2.80
2023-05-14T08:55:58.470Z,2.67
2023-05-14T08:57:00.155Z,3.35
2023-05-14T08:58:01.819Z,2.88
2023-05-14T08:59:03.615Z,2.58
2023-05-14T09:00:08.748Z,3.00
2023-05-14T09:01:10.452Z,2.63
2023-05-14T09:02:15.019Z,3.40
2023-05-14T09:03:18.653Z,3.47
2023-05-14T09:04:23.103Z,2.95
2023-05-14T09:05:25.249Z,2.80
2023-05-14T09:06:27.636Z,3.00
2023-05-14T09:07:29.291Z,2.60
2023-05-14T09:08:31.358Z,3.00
2023-05-14T09:09:33.239Z,2.97
2023-05-14T09:10:34.844Z,2.83
2023-05-14T09:11:43.585Z,2.55
2023-05-14T09:13:46.670Z,2.80
2023-05-14T09:14:49.929Z,3.00
2023-05-14T09:15:52.743Z,2.90
2023-05-14T09:16:55.436Z,2.88
2023-05-14T09:17:57.163Z,2.78
2023-05-14T09:18:59.071Z,3.08
2023-05-14T09:20:01.399Z,3.05
2023-05-14T09:21:04.820Z,2.80
2023-05-14T09:22:09.998Z,2.92
2023-05-14T09:23:11.558Z,3.28
2023-05-14T09:24:26.576Z,3.10
2023-05-14T09:25:31.881Z,2.80
2023-05-14T09:26:34.716Z,2.80
2023-05-14T09:27:36.864Z,2.50
2023-05-14T09:28:44.119Z,2.80
2023-05-14T09:29:45.725Z,2.60
2023-05-14T09:30:52.082Z,2.70
2023-05-14T09:31:55.143Z,2.58
2023-05-14T09:32:56.796Z,2.65
2023-05-14T09:33:59.662Z,2.65
2023-05-14T09:35:19.046Z,2.63
2023-05-14T09:36:20.698Z,2.55
2023-05-14T09:37:22.341Z,2.60
2023-05-14T09:38:28.795Z,2.80
2023-05-14T09:39:31.158Z,2.72
2023-05-14T09:40:32.737Z,2.80
2023-05-14T09:41:34.863Z,3.00
2023-05-14T09:42:36.533Z,2.80
2023-05-14T09:43:38.446Z,2.60
2023-05-14T09:44:40.085Z,3.05
2023-05-14T09:45:41.675Z,2.83
2023-05-14T09:46:43.337Z,2.63
2023-05-14T09:47:45.511Z,2.40
2023-05-14T09:48:47.345Z,2.53
2023-05-14T09:49:49.354Z,2.58
2023-05-14T09:50:52.253Z,2.60
2023-05-14T09:51:54.013Z,2.70
2023-05-14T09:52:56.149Z,2.30
2023-05-14T09:53:58.051Z,1.85
2023-05-14T09:55:00.591Z,2.42
2023-05-14T09:56:02.126Z,2.50
2023-05-14T09:57:03.871Z,2.60
2023-05-14T09:58:06.114Z,2.70
2023-05-14T09:59:07.727Z,2.10
2023-05-14T10:00:10.199Z,2.63
2023-05-14T10:01:12.661Z,2.15
2023-05-14T10:02:26.439Z,2.42
2023-05-14T10:03:30.031Z,2.50
2023-05-14T10:04:36.182Z,2.35
2023-05-14T10:05:40.568Z,2.50
2023-05-14T10:06:46.690Z,2.30
2023-05-14T10:07:51.382Z,2.40
2023-05-14T10:09:01.313Z,2.30
2023-05-14T10:10:06.732Z,2.42
2023-05-14T10:11:24.940Z,2.42
2023-05-14T10:12:32.605Z,2.40
2023-05-14T10:13:41.488Z,2.30
2023-05-14T10:14:49.745Z,2.20
2023-05-14T10:16:05.296Z,2.40
2023-05-14T10:17:07.868Z,2.17
2023-05-14T10:18:16.130Z,2.33
2023-05-14T10:19:21.055Z,2.28
2023-05-14T10:20:25.187Z,2.20
2023-05-14T10:21:31.997Z,2.40
2023-05-14T10:22:35.147Z,1.95
2023-05-14T10:23:38.176Z,2.13
2023-05-14T10:24:40.483Z,2.28
2023-05-14T10:25:42.487Z,2.60
2023-05-14T10:26:45.064Z,2.22
2023-05-14T10:27:46.879Z,2.10
2023-05-14T10:28:48.988Z,2.60
2023-05-14T10:29:55.753Z,2.20
2023-05-14T10:30:59.613Z,2.08
2023-05-14T10:32:08.965Z,2.47
2023-05-14T10:33:16.490Z,2.22
2023-05-14T10:34:44.154Z,2.53
2023-05-14T10:36:05.858Z,2.25
2023-05-14T10:37:23.161Z,2.30
2023-05-14T10:38:28.769Z,2.20
2023-05-14T10:39:49.568Z,2.20
2023-05-14T10:40:54.084Z,1.80
2023-05-14T10:41:55.948Z,1.90
2023-05-14T10:42:59.544Z,2.05
2023-05-14T10:44:09.345Z,2.20
2023-05-14T10:45:12.710Z,2.03
2023-05-14T10:46:14.831Z,2.10
2023-05-14T10:47:17.861Z,2.28
2023-05-14T10:48:20.669Z,2.20
2023-05-14T10:49:35.593Z,2.33
2023-05-14T10:50:44.086Z,2.10
2023-05-14T10:51:49.505Z,2.00
2023-05-14T10:52:52.016Z,2.28
2023-05-14T10:53:54.951Z,2.00
2023-05-14T10:55:00.054Z,1.88
2023-05-14T10:56:08.423Z,2.25
2023-05-14T10:57:12.626Z,1.85
2023-05-14T10:58:15.512Z,2.40
2023-05-14T10:59:17.700Z,2.58
2023-05-14T11:00:19.684Z,2.30
2023-05-14T11:01:24.280Z,1.92
2023-05-14T11:02:33.688Z,2.03
2023-05-14T11:03:46.681Z,2.30
2023-05-14T11:05:00.627Z,2.22
2023-05-14T11:06:04.166Z,2.20
2023-05-14T11:07:06.001Z,2.00
2023-05-14T11:08:08.867Z,2.10
2023-05-14T11:09:13.860Z,2.40
2023-05-14T11:10:30.498Z,2.13
2023-05-14T11:11:32.453Z,2.00
2023-05-14T11:12:38.776Z,2.35
2023-05-14T11:13:41.392Z,2.28
2023-05-14T11:14:43.069Z,2.10
2023-05-14T11:15:48.188Z,2.10
2023-05-14T11:16:50.450Z,2.13
2023-05-14T11:17:53.706Z,1.85
2023-05-14T11:19:03.493Z,1.92
2023-05-14T11:20:06.551Z,2.20
2023-05-14T11:21:08.251Z,2.00
2023-05-14T11:22:12.561Z,2.40
2023-05-14T11:23:14.605Z,2.10
2023-05-14T11:24:16.249Z,2.30
2023-05-14T11:25:18.944Z,2.25
2023-05-14T11:26:21.653Z,2.20
2023-05-14T11:27:24.030Z,2.15
2023-05-14T11:28:26.693Z,2.00
2023-05-14T11:29:28.509Z,2.30
2023-05-14T11:30:31.320Z,2.83
2023-05-14T11:31:33.036Z,2.30
2023-05-14T11:32:35.288Z,2.00
2023-05-14T11:33:37.155Z,2.00
2023-05-14T11:34:39.245Z,2.40
2023-05-14T11:35:42.862Z,1.90
2023-05-14T11:36:44.850Z,2.08
2023-05-14T11:37:52.574Z,2.10
2023-05-14T11:38:54.253Z,1.92
2023-05-14T11:39:56.512Z,2.30
2023-05-14T11:40:59.721Z,2.05
2023-05-14T11:42:09.872Z,2.30
2023-05-14T11:43:11.457Z,2.92
2023-05-14T11:44:13.490Z,2.20
2023-05-14T11:45:26.324Z,2.03
2023-05-14T11:46:30.107Z,2.03
2023-05-14T11:47:31.935Z,2.20
2023-05-14T11:48:34.347Z,2.25
2023-05-14T11:49:37.756Z,2.28
2023-05-14T11:50:40.456Z,2.08
2023-05-14T11:51:42.005Z,2.13
2023-05-14T11:52:43.748Z,2.28
2023-05-14T11:53:46.376Z,2.17
2023-05-14T11:54:50.700Z,2.50
2023-05-14T11:55:54.445Z,2.47
2023-05-14T11:56:56.843Z,2.00
2023-05-14T11:57:58.929Z,2.20
2023-05-14T11:59:00.841Z,2.13
2023-05-14T12:00:02.487Z,3.00
2023-05-14T12:01:06.418Z,2.20
2023-05-14T12:02:16.128Z,2.30
2023-05-14T12:03:25.688Z,1.95
2023-05-14T12:04:29.363Z,2.00
2023-05-14T12:05:31.103Z,2.42
2023-05-14T12:06:32.721Z,2.35
2023-05-14T12:07:34.661Z,2.15
2023-05-14T12:08:37.592Z,3.05
2023-05-14T12:09:44.206Z,2.40
2023-05-14T12:10:47.183Z,2.45
2023-05-14T12:11:51.026Z,2.30
2023-05-14T12:12:52.684Z,2.50
2023-05-14T12:13:54.444Z,2.40
2023-05-14T12:14:56.047Z,2.55
2023-05-14T12:16:00.796Z,2.30
2023-05-14T12:17:02.497Z,2.40
2023-05-14T12:18:22.863Z,2.30
2023-05-14T12:19:25.954Z,2.60
2023-05-14T12:20:29.640Z,2.50
2023-05-14T12:21:31.960Z,2.17
2023-05-14T12:22:36.400Z,2.30
2023-05-14T12:23:39.411Z,2.33
2023-05-14T12:24:41.186Z,2.42
2023-05-14T12:25:51.550Z,2.40
2023-05-14T12:26:55.391Z,2.50
2023-05-14T12:27:56.997Z,2.50
2023-05-14T12:29:03.604Z,2.30
2023-05-14T12:30:20.728Z,2.13
2023-05-14T12:31:30.183Z,2.22
2023-05-14T12:32:33.505Z,2.42
2023-05-14T12:33:35.461Z,3.00
2023-05-14T12:34:37.905Z,2.17
2023-05-14T12:35:40.247Z,2.30
2023-05-14T12:36:42.246Z,2.13
2023-05-14T12:37:43.978Z,2.15
2023-05-14T12:38:45.705Z,2.30
2023-05-14T12:39:47.342Z,2.30
2023-05-14T12:40:49.111Z,2.42
2023-05-14T12:41:50.680Z,2.50
2023-05-14T12:42:52.757Z,2.17
2023-05-14T12:43:55.331Z,2.28
2023-05-14T12:44:56.874Z,2.50
2023-05-14T12:45:58.640Z,2.40
2023-05-14T12:47:00.340Z,2.28
2023-05-14T12:48:02.085Z,2.38
2023-05-14T12:49:04.021Z,2.65
2023-05-14T12:50:06.517Z,2.28
2023-05-14T12:51:08.454Z,2.42
2023-05-14T12:52:22.839Z,2.67
2023-05-14T12:53:31.646Z,2.40
2023-05-14T12:54:33.576Z,2.28
2023-05-14T12:55:35.269Z,2.13
2023-05-14T12:56:38.747Z,2.30
2023-05-14T12:57:40.579Z,2.17
2023-05-14T12:58:42.296Z,2.22
2023-05-14T12:59:43.950Z,2.30
2023-05-14T13:00:45.594Z,2.38
2023-05-14T13:01:47.418Z,2.20
2023-05-14T13:02:49.512Z,2.60
2023-05-14T13:03:51.309Z,2.30
2023-05-14T13:04:55.308Z,2.20
2023-05-14T13:05:57.272Z,2.03
2023-05-14T13:06:59.245Z,2.58
2023-05-14T13:08:02.284Z,2.25
2023-05-14T13:09:04.181Z,2.13
2023-05-14T13:10:06.626Z,2.10
2023-05-14T13:11:08.519Z,2.38
2023-05-14T13:12:10.117Z,2.50
2023-05-14T13:13:12.390Z,2.28
2023-05-14T13:14:13.963Z,2.10
2023-05-14T13:15:16.025Z,2.40
2023-05-14T13:16:17.734Z,2.15
2023-05-14T13:17:19.528Z,2.38
2023-05-14T13:18:21.400Z,2.20
2023-05-14T13:19:22.998Z,2.38
2023-05-14T13:20:27.376Z,2.33
2023-05-14T13:21:29.008Z,2.50
2023-05-14T13:22:30.934Z,2.78
2023-05-14T13:23:32.592Z,2.38
2023-05-14T13:24:34.915Z,2.42
2023-05-14T13:25:36.638Z,2.20
2023-05-14T13:26:40.402Z,2.67
2023-05-14T13:27:41.969Z,2.35
2023-05-14T13:28:43.683Z,2.40
2023-05-14T13:29:45.343Z,2.50
2023-05-14T13:31:07.440Z,2.25
2023-05-14T13:32:09.189Z,2.25
2023-05-14T13:33:10.810Z,2.22
2023-05-14T13:34:13.068Z,2.40
2023-05-14T13:35:14.852Z,2.20
2023-05-14T13:36:16.773Z,2.00
2023-05-14T13:37:18.535Z,2.20
2023-05-14T13:38:20.161Z,2.10
2023-05-14T13:39:22.744Z,2.00
2023-05-14T13:40:24.693Z,1.75
2023-05-14T13:41:26.449Z,1.90
2023-05-14T13:42:28.014Z,1.95
2023-05-14T13:43:34.572Z,1.90
2023-05-14T13:44:36.254Z,2.00
2023-05-14T13:45:37.850Z,2.10
2023-05-14T13:46:39.747Z,2.47
2023-05-14T13:47:41.467Z,2.13
2023-05-14T13:48:43.558Z,2.13
2023-05-14T13:49:45.215Z,2.22
2023-05-14T13:50:46.765Z,2.40
2023-05-14T13:51:48.439Z,2.35
2023-05-14T13:52:49.973Z,2.20
2023-05-14T13:53:51.802Z,2.10
2023-05-14T13:54:53.495Z,2.45
2023-05-14T13:55:58.311Z,2.35
2023-05-14T13:57:00.076Z,2.30
2023-05-14T13:58:02.273Z,2.30
2023-05-14T13:59:04.000Z,2.63
2023-05-14T14:00:06.621Z,2.40
2023-05-14T14:01:08.316Z,2.30
2023-05-14T14:02:10.002Z,2.38